createdAt,value
2023-01-13T00:01:23.306Z,12.40
2023-01-13T00:03:53.862Z,12.50
2023-01-13T00:06:25.402Z,13.40
2023-01-13T00:08:53.681Z,12.70
2023-01-13T00:11:22.192Z,12.80
2023-01-13T00:13:50.009Z,13.50
2023-01-13T00:16:19.383Z,12.80
2023-01-13T00:18:48.238Z,12.60
2023-01-13T00:21:21.685Z,13.00
2023-01-13T00:23:51.743Z,14.20
2023-01-13T00:26:23.045Z,12.40
2023-01-13T00:28:51.185Z,12.20
2023-01-13T00:31:20.668Z,11.30
2023-01-13T00:33:48.743Z,11.90
2023-01-13T00:36:18.998Z,11.80
2023-01-13T00:38:46.916Z,21.70
2023-01-13T00:41:19.239Z,20.80
2023-01-13T00:43:47.724Z,14.60
2023-01-13T00:46:18.007Z,13.80
2023-01-13T00:48:46.726Z,12.70
2023-01-13T00:51:19.693Z,12.90
2023-01-13T00:53:50.316Z,12.90
2023-01-13T00:56:38.413Z,13.50
2023-01-13T00:59:10.841Z,12.20
2023-01-13T01:01:39.648Z,12.60
2023-01-13T01:04:07.381Z,12.20
2023-01-13T01:06:35.243Z,12.10
2023-01-13T01:09:03.896Z,12.00
2023-01-13T01:11:33.068Z,11.10
2023-01-13T01:14:03.232Z,10.90
2023-01-13T01:16:32.735Z,11.60
2023-01-13T01:19:01.378Z,11.70
2023-01-13T01:21:29.391Z,11.10
2023-01-13T01:24:00.560Z,11.70
2023-01-13T01:26:30.798Z,9.40
2023-01-13T01:28:59.076Z,12.10
2023-01-13T01:31:29.508Z,12.00
2023-01-13T01:33:57.310Z,12.80
2023-01-13T01:36:26.709Z,12.40
2023-01-13T01:38:56.575Z,10.30
2023-01-13T01:41:26.992Z,11.50
2023-01-13T01:44:06.706Z,11.90
2023-01-13T01:46:44.850Z,11.90
2023-01-13T01:49:27.881Z,11.50
2023-01-13T01:52:17.243Z,11.60
2023-01-13T01:54:54.597Z,11.10
2023-01-13T01:57:41.948Z,10.90
2023-01-13T02:00:10.436Z,11.00
2023-01-13T02:02:39.347Z,12.30
2023-01-13T02:05:07.703Z,12.20
2023-01-13T02:07:37.220Z,12.10
2023-01-13T02:10:08.769Z,10.90
2023-01-13T02:15:09.925Z,9.60
2023-01-13T02:18:05.430Z,11.40
2023-01-13T02:20:43.519Z,11.20
2023-01-13T02:23:24.113Z,11.00
2023-01-13T02:26:18.855Z,11.70
2023-01-13T02:29:15.688Z,11.00
2023-01-13T02:31:48.566Z,12.00
2023-01-13T02:34:26.748Z,11.20
2023-01-13T02:37:03.517Z,10.40
2023-01-13T02:39:47.788Z,11.80
2023-01-13T02:42:25.755Z,11.00
2023-01-13T02:45:06.782Z,11.60
2023-01-13T02:47:38.183Z,10.20
2023-01-13T02:50:12.288Z,11.50
2023-01-13T02:52:45.618Z,12.40
2023-01-13T02:55:18.041Z,10.30
2023-01-13T02:57:46.423Z,10.70
2023-01-13T03:00:16.842Z,10.60
2023-01-13T03:02:44.520Z,10.90
2023-01-13T03:05:15.381Z,10.70
2023-01-13T03:08:13.461Z,11.40
2023-01-13T03:11:14.380Z,10.40
2023-01-13T03:14:00.723Z,10.70
2023-01-13T03:16:30.860Z,10.40
2023-01-13T03:19:39.787Z,9.70
2023-01-13T03:22:34.224Z,10.30
2023-01-13T03:25:18.324Z,11.00
2023-01-13T03:27:59.141Z,11.20
2023-01-13T03:30:52.968Z,11.00
2023-01-13T03:33:36.322Z,11.30
2023-01-13T03:36:09.351Z,12.00
2023-01-13T03:38:44.526Z,11.60
2023-01-13T03:41:18.852Z,12.00
2023-01-13T03:43:53.848Z,10.70
2023-01-13T03:46:47.689Z,11.60
2023-01-13T03:49:23.616Z,11.50
2023-01-13T03:52:05.445Z,11.10
2023-01-13T03:54:39.652Z,11.70
2023-01-13T03:57:11.959Z,11.20
2023-01-13T03:59:43.328Z,11.70
2023-01-13T04:02:19.852Z,11.40
2023-01-13T04:04:57.967Z,9.50
2023-01-13T04:07:35.119Z,10.20
2023-01-13T04:10:08.156Z,10.40
2023-01-13T04:12:46.428Z,10.30
2023-01-13T04:15:15.039Z,9.70
2023-01-13T04:17:42.720Z,8.90
2023-01-13T04:20:10.915Z,10.60
2023-01-13T04:22:38.515Z,10.10
2023-01-13T04:25:06.702Z,9.70
2023-01-13T04:27:34.311Z,10.20
2023-01-13T04:30:01.930Z,9.10
2023-01-13T04:32:29.629Z,9.40
2023-01-13T04:34:57.259Z,9.50
2023-01-13T04:37:24.843Z,10.00
2023-01-13T04:39:52.409Z,9.40
2023-01-13T04:42:20.015Z,10.30
2023-01-13T04:44:47.571Z,9.40
2023-01-13T04:47:15.187Z,10.10
2023-01-13T04:49:42.759Z,10.50
2023-01-13T04:52:10.407Z,10.80
2023-01-13T04:54:38.018Z,10.40
2023-01-13T04:57:05.785Z,10.60
2023-01-13T04:59:34.649Z,9.40
2023-01-13T05:02:02.352Z,9.40
2023-01-13T05:04:30.092Z,10.20
2023-01-13T05:06:57.712Z,10.50
2023-01-13T05:09:25.308Z,9.80
2023-01-13T05:11:53.340Z,10.10
2023-01-13T05:14:20.912Z,9.70
2023-01-13T05:16:51.564Z,10.20
2023-01-13T05:19:19.196Z,9.60
2023-01-13T05:21:46.823Z,8.90
2023-01-13T05:24:14.492Z,10.10
2023-01-13T05:26:42.067Z,10.90
2023-01-13T05:29:09.693Z,10.30
2023-01-13T05:31:37.503Z,10.50
2023-01-13T05:34:05.125Z,10.40
2023-01-13T05:36:32.736Z,10.60
2023-01-13T05:39:00.319Z,11.00
2023-01-13T05:41:27.936Z,11.30
2023-01-13T05:43:55.541Z,11.10
2023-01-13T05:46:23.236Z,11.10
2023-01-13T05:48:50.909Z,10.70
2023-01-13T05:51:18.481Z,10.60
2023-01-13T05:53:46.087Z,10.50
2023-01-13T05:56:13.672Z,10.70
2023-01-13T05:58:41.278Z,9.60
2023-01-13T06:01:09.892Z,11.00
2023-01-13T06:03:38.236Z,11.50
2023-01-13T06:06:06.127Z,12.40
2023-01-13T06:08:33.855Z,11.00
2023-01-13T06:11:01.548Z,11.80
2023-01-13T06:13:29.224Z,12.10
2023-01-13T06:15:58.253Z,10.90
2023-01-13T06:18:26.531Z,11.40
2023-01-13T06:20:54.110Z,10.10
2023-01-13T06:23:21.986Z,11.00
2023-01-13T06:26:15.947Z,13.00
2023-01-13T06:28:43.568Z,11.10
2023-01-13T06:31:11.788Z,10.90
2023-01-13T06:33:45.439Z,9.30
2023-01-13T06:36:18.649Z,10.90
2023-01-13T06:38:51.680Z,12.40
2023-01-13T06:41:20.181Z,10.40
2023-01-13T06:43:47.870Z,10.70
2023-01-13T06:46:15.664Z,10.30
2023-01-13T06:48:43.753Z,10.20
2023-01-13T06:51:11.395Z,10.40
2023-01-13T06:53:39.013Z,11.80
2023-01-13T06:56:06.862Z,9.40
2023-01-13T06:58:34.436Z,11.40
2023-01-13T07:01:02.242Z,10.60
2023-01-13T07:03:29.934Z,10.90
2023-01-13T07:05:57.544Z,10.20
2023-01-13T07:08:25.188Z,10.40
2023-01-13T07:10:53.029Z,8.10
2023-01-13T07:13:25.276Z,9.70
2023-01-13T07:15:58.113Z,10.60
2023-01-13T07:18:29.059Z,10.60
2023-01-13T07:20:59.062Z,10.70
2023-01-13T07:23:35.325Z,10.70
2023-01-13T07:26:03.419Z,10.10
2023-01-13T07:28:31.528Z,10.30
2023-01-13T07:30:59.352Z,10.50
2023-01-13T07:33:27.563Z,10.40
2023-01-13T07:36:03.075Z,10.70
2023-01-13T07:38:31.864Z,11.20
2023-01-13T07:41:00.186Z,10.70
2023-01-13T07:43:27.800Z,11.40
2023-01-13T07:45:56.793Z,14.60
2023-01-13T07:48:25.101Z,21.10
2023-01-13T07:50:52.826Z,14.30
2023-01-13T07:53:21.421Z,14.20
2023-01-13T07:55:49.044Z,10.70
2023-01-13T07:58:16.623Z,9.70
2023-01-13T08:00:44.268Z,10.90
2023-01-13T08:03:11.932Z,9.20
2023-01-13T08:05:39.533Z,8.60
2023-01-13T08:08:07.202Z,9.60
2023-01-13T08:10:34.809Z,8.10
2023-01-13T08:13:08.983Z,9.10
2023-01-13T08:15:36.583Z,9.10
2023-01-13T08:18:04.206Z,8.20
2023-01-13T08:20:31.804Z,8.00
2023-01-13T08:23:00.405Z,8.70
2023-01-13T08:25:29.272Z,8.80
2023-01-13T08:27:57.197Z,9.10
2023-01-13T08:30:24.814Z,9.70
2023-01-13T08:32:52.424Z,9.20
2023-01-13T08:35:20.801Z,6.80
2023-01-13T08:37:49.175Z,8.50
2023-01-13T08:40:19.192Z,8.10
2023-01-13T08:42:48.597Z,7.90
2023-01-13T08:45:16.768Z,8.80
2023-01-13T08:47:44.464Z,8.40
2023-01-13T08:50:12.231Z,8.50
2023-01-13T08:52:40.567Z,9.40
2023-01-13T08:55:08.952Z,7.60
2023-01-13T08:57:37.073Z,8.60
2023-01-13T09:00:06.986Z,7.00
2023-01-13T09:02:34.780Z,7.80
2023-01-13T09:05:02.776Z,6.40
2023-01-13T09:07:31.282Z,8.20
2023-01-13T09:09:59.080Z,7.10
2023-01-13T09:12:26.952Z,9.00
2023-01-13T09:14:54.571Z,8.20
2023-01-13T09:17:22.288Z,6.80
2023-01-13T09:19:50.289Z,7.70
2023-01-13T09:22:19.258Z,8.30
2023-01-13T09:24:46.886Z,7.80
2023-01-13T09:27:15.472Z,8.30
2023-01-13T09:29:43.095Z,8.30
2023-01-13T09:32:14.995Z,10.10
2023-01-13T09:34:42.891Z,8.00
2023-01-13T09:37:10.481Z,9.30
2023-01-13T09:39:38.090Z,7.80
2023-01-13T09:42:18.968Z,8.40
2023-01-13T09:44:56.370Z,9.30
2023-01-13T09:47:31.563Z,8.10
2023-01-13T09:50:14.339Z,9.30
2023-01-13T09:52:42.888Z,8.80
2023-01-13T09:55:19.956Z,8.30
2023-01-13T09:57:47.556Z,8.90
2023-01-13T10:00:22.436Z,7.80
2023-01-13T10:03:31.866Z,8.70
2023-01-13T10:06:09.035Z,8.00
2023-01-13T10:08:41.894Z,8.40
2023-01-13T10:11:15.182Z,9.60
2023-01-13T10:13:43.163Z,10.10
2023-01-13T10:16:10.826Z,9.30
2023-01-13T10:19:03.530Z,8.10
2023-01-13T10:21:59.107Z,7.20
2023-01-13T10:24:51.176Z,8.00
2023-01-13T10:27:29.244Z,8.80
2023-01-13T10:29:57.070Z,6.00
2023-01-13T10:32:24.620Z,10.80
2023-01-13T10:34:52.512Z,9.90
2023-01-13T10:37:25.670Z,9.70
2023-01-13T10:40:01.186Z,8.10
2023-01-13T10:42:28.959Z,8.80
2023-01-13T10:44:59.507Z,9.40
2023-01-13T10:47:30.201Z,9.50
2023-01-13T10:50:12.887Z,6.30
2023-01-13T10:52:55.724Z,8.70
2023-01-13T10:55:35.425Z,8.60
2023-01-13T10:58:18.180Z,10.20
2023-01-13T11:00:47.564Z,8.40
2023-01-13T11:03:25.612Z,9.90
2023-01-13T11:05:53.137Z,9.20
2023-01-13T11:08:24.858Z,9.40
2023-01-13T11:10:57.916Z,9.60
2023-01-13T11:13:32.199Z,10.90
2023-01-13T11:16:14.227Z,9.00
2023-01-13T11:19:04.409Z,9.60
2023-01-13T11:21:39.928Z,11.30
2023-01-13T11:24:25.505Z,10.10
2023-01-13T11:27:04.309Z,13.10
2023-01-13T11:29:47.134Z,12.10
2023-01-13T11:32:20.049Z,10.20
2023-01-13T11:35:17.872Z,9.40
2023-01-13T11:37:51.444Z,9.50
2023-01-13T11:40:32.753Z,9.50
2023-01-13T11:43:10.533Z,10.30
2023-01-13T11:45:53.152Z,9.50
2023-01-13T11:48:25.017Z,8.80
2023-01-13T11:51:13.363Z,12.10
2023-01-13T11:54:11.328Z,11.50
2023-01-13T11:56:54.047Z,9.40
2023-01-13T11:59:40.236Z,8.80
2023-01-13T12:02:16.923Z,10.90
2023-01-13T12:05:19.657Z,8.50
2023-01-13T12:08:13.382Z,10.30
2023-01-13T12:10:49.803Z,8.50
2023-01-13T12:13:40.172Z,11.40
2023-01-13T12:16:18.961Z,11.90
2023-01-13T12:19:11.368Z,12.00
2023-01-13T12:22:08.312Z,10.20
2023-01-13T12:24:55.549Z,9.30
2023-01-13T12:27:49.237Z,11.50
2023-01-13T12:30:27.051Z,12.60
2023-01-13T12:33:03.328Z,13.80
2023-01-13T12:35:36.594Z,11.40
2023-01-13T12:38:17.417Z,13.00
2023-01-13T12:41:01.768Z,11.50
2023-01-13T12:43:30.076Z,9.60
2023-01-13T12:46:19.673Z,10.10
2023-01-13T12:48:53.229Z,12.40
2023-01-13T12:51:23.542Z,12.60
2023-01-13T12:53:51.764Z,10.00
2023-01-13T12:56:42.046Z,9.30
2023-01-13T12:59:18.526Z,12.70
2023-01-13T13:01:48.686Z,12.60
2023-01-13T13:04:41.443Z,12.80
2023-01-13T13:07:15.189Z,12.60
2023-01-13T13:10:00.660Z,13.00
2023-01-13T13:12:55.972Z,13.20
2023-01-13T13:15:32.664Z,14.30
2023-01-13T13:18:20.181Z,12.60
2023-01-13T13:21:06.092Z,15.80
2023-01-13T13:23:33.659Z,14.20
2023-01-13T13:26:18.582Z,12.90
2023-01-13T13:28:56.076Z,13.20
2023-01-13T13:31:44.780Z,13.30
2023-01-13T13:34:28.162Z,12.40
2023-01-13T13:37:25.585Z,10.80
2023-01-13T13:39:54.123Z,12.40
2023-01-13T13:42:26.459Z,11.60
2023-01-13T13:44:55.410Z,11.00
2023-01-13T13:47:23.195Z,10.90
2023-01-13T13:49:53.059Z,12.90
2023-01-13T13:52:27.008Z,15.70
2023-01-13T13:54:58.694Z,12.20
2023-01-13T14:00:08.449Z,12.90
2023-01-13T14:02:37.626Z,12.30
2023-01-13T14:05:21.934Z,12.10
2023-01-13T14:08:00.359Z,12.70
2023-01-13T14:10:35.152Z,11.80
2023-01-13T14:13:24.037Z,10.30
2023-01-13T14:16:14.375Z,10.60
2023-01-13T14:18:47.588Z,11.60
2023-01-13T14:21:28.234Z,11.30
2023-01-13T14:24:08.624Z,11.00
2023-01-13T14:26:36.467Z,11.80
2023-01-13T14:29:04.497Z,10.90
2023-01-13T14:31:34.089Z,11.30
2023-01-13T14:34:32.067Z,10.80
